Antwerp, Ohio
Current Conditions -  °F | °C
As of 1:15 PM on Thursday 29 Jan 2015 (Local Time) from KGWB Reporting Station
Overcast Overcast  
Wind Chill: 28°   Ceiling: 1900
Heat Index: 36°   Visibility: 10mi
Dew Point: 32°   Wind: 12mph
Humidity: 87%   Direction: 290°WNW
Pressure: 29.76"   Gusts: 20mph
Location:  41.18°N, 84.74°W
Report Text: KGWB 291815Z AUTO 29010G17KT 10SM OVC019 02/00 A2976 RMK AO2
Loading
Personal Weather Stations






























Interactive Weather Map New forecast layout! Learn more

10-Day Weather Forecast

Advertisements
Track Severe Weather on mobile